Latest Weather Observations for Mount Boyce

IDN60901

Issued at 8:45 pm EST Tuesday 29 July 2014 (issued every 10 minutes, with the page automatically refreshed every 10 minutes)

About weather observations | Map of Sydney area stations | Latest observations for Sydney area | Other Formats
Station Details ID: 063292 Name: MOUNT BOYCE AWS Lat: -33.62 Lon: 150.27 Height: 1080.0 m
Data from the previous 72 hours. | See also: Recent months at Mount Boyce
Date/Time
EST
Tmp

°C
App
Tmp
°C
Dew
Point
°C
Rel
Hum
%
Delta-T

°C
Wind Press
QNH
hPa
Press
MSL
hPa
Rain
since
9 am
mm
Dir
 
Spd
km/h
Gust
km/h
Spd
kts
Gust
kts
29/08:30pm 9.2 1.7 1.1 57 3.5 W 30 57 16 31 - - 0.0
29/08:08pm 9.3 2.2 1.2 57 3.6 W 28 50 15 27 - - 0.0
29/08:00pm 9.2 2.4 1.1 57 3.5 W 26 48 14 26 - - 0.0
29/07:30pm 9.5 2.4 1.2 56 3.7 W 28 52 15 28 - - 0.0
29/07:24pm 9.4 2.3 1.1 56 3.6 W 28 52 15 28 - - 0.0
29/07:00pm 9.2 2.4 0.9 56 3.6 W 26 43 14 23 - - 0.0
29/06:30pm 9.5 2.3 0.7 54 3.8 W 28 46 15 25 - - 0.0
29/06:00pm 9.9 1.9 0.5 52 4.1 W 32 54 17 29 - - 0.0
29/05:30pm 10.4 2.1 -0.1 48 4.5 W 33 65 18 35 - - 0.0
29/05:00pm 11.0 2.8 0.1 47 4.7 W 33 54 18 29 - - 0.0
29/04:30pm 11.6 3.6 0.1 45 5.0 W 32 50 17 27 - - 0.0
29/04:00pm 12.1 4.5 0.8 46 5.0 W 30 48 16 26 - - 0.0
29/03:30pm 12.0 1.4 0.8 46 5.0 W 46 76 25 41 - - 0.0
29/03:00pm 12.2 1.6 0.9 46 5.1 W 46 72 25 39 - - 0.0
29/02:30pm 12.2 2.5 0.6 45 5.2 WSW 41 78 22 42 - - 0.0
29/02:00pm 11.9 1.3 1.0 47 4.9 W 46 78 25 42 - - 0.0
29/01:30pm 11.3 -0.8 1.0 49 4.6 W 54 78 29 42 - - 0.0
29/01:00pm 11.1 0.9 1.1 50 4.5 W 44 70 24 38 - - 0.0
29/12:30pm 10.7 -0.3 0.7 50 4.4 W 48 74 26 40 - - 0.0
29/12:00pm 10.1 -1.0 0.2 50 4.3 W 48 87 26 47 - - 0.0
29/11:30am 10.0 -0.3 0.1 50 4.3 W 44 74 24 40 - - 0.0
29/11:00am 9.1 -1.1 -0.2 52 3.9 W 43 67 23 36 - - 0.0
29/10:30am 8.7 -0.8 -0.6 52 3.9 W 39 67 21 36 - - 0.0
29/10:00am 8.4 -0.3 -0.6 53 3.8 W 35 54 19 29 - - 0.0
29/09:30am 8.2 0.0 -0.8 53 3.7 W 32 52 17 28 - - 0.0
29/09:00am 7.7 -1.1 -1.0 54 3.6 WSW 35 56 19 30 - - 0.0
29/08:36am 7.4 -0.7 -0.5 57 3.3 W 32 50 17 27 - - 0.0
29/08:30am 7.3 -1.0 -0.6 57 3.3 WSW 33 50 18 27 - - 0.0
29/08:09am 7.1 -1.6 -0.6 58 3.2 W 35 54 19 29 - - 0.0
29/08:00am 7.1 -2.0 -0.4 59 3.1 W 37 52 20 28 - - 0.0
29/07:37am 6.6 -1.6 0.1 63 2.7 W 33 56 18 30 - - 0.0
29/07:30am 6.6 -1.7 -0.1 62 2.8 W 33 44 18 24 - - 0.0
29/07:02am 6.6 -0.7 0.3 64 2.6 W 28 46 15 25 - - 0.0
29/07:00am 6.5 -0.4 0.2 64 2.6 W 26 48 14 26 - - 0.0
29/06:30am 6.3 -0.2 0.6 67 2.4 W 24 35 13 19 - - 0.0
29/06:00am 6.2 0.1 0.7 68 2.3 W 22 32 12 17 - - 0.0
29/05:30am 6.2 -1.9 0.7 68 2.3 W 33 48 18 26 - - 0.0
29/05:00am 6.4 -1.7 0.7 67 2.4 WSW 33 59 18 32 - - 0.0
29/04:42am 5.7 -1.8 1.1 72 1.9 WSW 30 52 16 28 - - 0.0
29/04:30am 5.4 -1.8 1.0 73 1.9 WSW 28 37 15 20 - - 0.0
29/04:00am 5.7 -1.8 1.1 72 1.9 WSW 30 39 16 21 - - 0.0
29/03:30am 5.9 -1.6 1.1 71 2.0 W 30 46 16 25 - - 0.0
29/03:00am 5.8 -1.7 1.2 72 2.0 W 30 41 16 22 - - 0.0
29/02:30am 6.1 -2.0 1.2 71 2.1 WSW 33 44 18 24 - - 0.0
29/02:00am 5.9 -1.2 1.2 72 2.0 WSW 28 43 15 23 - - 0.0
29/01:30am 5.9 -0.8 1.2 72 2.0 WSW 26 41 14 22 - - 0.0
29/01:12am 6.0 -1.5 1.2 71 2.0 W 30 48 16 26 - - 0.0
29/01:00am 6.1 -2.4 1.2 71 2.1 W 35 50 19 27 - - 0.0
29/12:30am 5.8 -2.2 1.5 74 1.8 W 33 50 18 27 - - 0.0
29/12:06am 5.8 -2.2 1.9 76 1.7 W 33 52 18 28 - - 0.0
29/12:00am 5.5 -2.5 1.8 77 1.6 W 33 46 18 25 - - 0.0
 
Date/Time
EST
Tmp

°C
App
Tmp
°C
Dew
Point
°C
Rel
Hum
%
Delta-T

°C
Wind Press
QNH
hPa
Press
MSL
hPa
Rain
since
9 am
mm
Dir
 
Spd
km/h
Gust
km/h
Spd
kts
Gust
kts
28/11:30pm 5.4 -2.4 1.7 77 1.6 W 32 50 17 27 - - 0.0
28/11:00pm 5.7 -2.2 2.0 77 1.6 W 33 54 18 29 - - 0.0
28/10:40pm 5.9 -2.8 2.0 76 1.7 W 37 56 20 30 - - 0.0
28/10:30pm 5.7 -2.7 1.8 76 1.7 W 35 52 19 28 - - 0.0
28/10:00pm 5.7 -3.0 1.8 76 1.7 W 37 50 20 27 - - 0.0
28/09:36pm 5.8 -2.5 1.9 76 1.7 W 35 54 19 29 - - 0.0
28/09:30pm 5.6 -2.4 1.9 77 1.6 W 33 50 18 27 - - 0.0
28/09:00pm 5.6 -2.2 1.9 77 1.6 W 32 50 17 27 - - 0.0
28/08:30pm 6.1 -1.7 2.0 75 1.8 W 32 48 17 26 - - 0.0
28/08:00pm 6.4 -1.3 2.1 74 1.9 W 32 48 17 26 - - 0.0
28/07:30pm 6.5 -0.1 2.0 73 2.0 W 26 41 14 22 - - 0.0
28/07:00pm 6.7 -0.4 1.6 70 2.2 W 28 39 15 21 - - 0.0
28/06:30pm 7.0 0.7 1.7 69 2.3 W 24 35 13 19 - - 0.0
28/06:00pm 7.1 0.4 1.4 67 2.5 W 26 37 14 20 - - 0.0
28/05:30pm 7.4 1.1 1.5 66 2.6 W 24 37 13 20 - - 0.0
28/05:00pm 8.1 0.6 1.5 63 2.9 W 30 39 16 21 - - 0.0
28/04:30pm 8.4 0.4 0.4 57 3.4 W 32 50 17 27 - - 0.0
28/04:24pm 8.6 1.3 0.1 55 3.6 W 28 46 15 25 - - 0.0
28/04:00pm 8.9 3.3 1.1 58 3.4 W 20 35 11 19 - - 0.0
28/03:30pm 8.8 2.9 1.9 62 3.1 W 22 39 12 21 - - 0.0
28/03:00pm 9.3 2.3 1.9 60 3.3 W 28 43 15 23 - - 0.0
28/02:35pm 9.8 2.5 2.4 60 3.4 W 30 52 16 28 - - 0.0
28/02:30pm 10.3 3.2 3.3 62 3.3 W 30 43 16 23 - - 0.0
28/02:00pm 9.0 1.2 2.6 64 2.9 W 33 48 18 26 - - 0.0
28/01:40pm 8.9 0.0 3.1 67 2.7 W 39 57 21 31 - - 0.0
28/01:30pm 8.3 -0.2 3.4 71 2.2 W 37 52 20 28 - - 0.0
28/01:09pm 8.0 0.5 3.3 72 2.1 W 32 50 17 27 - - 0.0
28/01:00pm 7.6 0.0 3.1 73 2.0 W 32 46 17 25 - - 0.0
28/12:39pm 7.6 -0.5 3.3 74 2.0 W 35 54 19 29 - - 0.0
28/12:30pm 7.7 0.2 3.2 73 2.0 W 32 48 17 26 - - 0.0
28/12:00pm 8.0 0.8 3.1 71 2.2 W 30 48 16 26 - - 0.0
28/11:47am 8.8 1.8 4.2 73 2.2 W 30 48 16 26 - - 0.0
28/11:30am 7.5 -0.7 2.6 71 2.2 W 35 46 19 25 - - 0.0
28/11:13am 8.0 0.7 2.7 69 2.4 WSW 30 48 16 26 - - 0.0
28/11:00am 7.8 0.3 3.3 73 2.0 WSW 32 48 17 26 - - 0.0
28/10:47am 7.1 -0.2 2.6 73 2.0 WSW 30 48 16 26 - - 0.0
28/10:30am 6.3 -1.0 2.6 77 1.6 WSW 30 39 16 21 - - 0.0
28/10:00am 5.0 -1.6 2.0 81 1.3 W 26 32 14 17 - - 0.0
28/09:30am 4.5 -2.5 1.7 82 1.2 W 28 39 15 21 - - 0.0
28/09:00am 4.0 -1.9 1.5 84 1.1 W 22 32 12 17 - - 0.0
28/08:30am 3.8 -2.9 1.4 84 1.0 W 26 33 14 18 - - 0.0
28/08:00am 3.6 -2.4 1.2 84 1.0 W 22 30 12 16 - - 0.0
28/07:30am 3.5 -1.5 1.2 85 1.0 W 17 24 9 13 - - 0.0
28/07:00am 3.4 -2.6 1.3 86 0.9 W 22 35 12 19 - - 0.0
28/06:30am 3.3 -3.0 1.3 87 0.8 W 24 39 13 21 - - 0.0
28/06:00am 3.5 -2.9 0.9 83 1.1 W 24 32 13 17 - - 0.0
28/05:30am 3.4 -3.0 1.0 84 1.0 W 24 32 13 17 - - 0.0
28/05:00am 3.2 -3.1 1.3 87 0.8 W 24 33 13 18 - - 0.0
28/04:30am 3.3 -3.8 1.2 86 0.9 W 28 37 15 20 - - 0.0
28/04:00am 3.0 -3.3 1.5 90 0.6 W 24 33 13 18 - - 0.0
28/03:30am 3.2 -4.2 1.6 89 0.7 W 30 37 16 20 - - 0.0
28/03:00am 3.3 -3.8 1.5 88 0.8 W 28 35 15 19 - - 0.0
28/02:30am 3.3 -4.5 1.8 90 0.6 W 32 43 17 23 - - 0.0
28/02:00am 3.0 -4.8 1.8 92 0.5 W 32 43 17 23 - - 0.0
28/01:30am 2.9 -4.1 1.9 93 0.4 W 28 39 15 21 - - 0.0
28/01:00am 3.1 -3.9 2.1 93 0.4 W 28 39 15 21 - - 0.0
28/12:30am 3.1 -4.6 2.1 93 0.4 W 32 41 17 22 - - 0.0
28/12:00am 3.2 -3.8 2.2 93 0.4 W 28 39 15 21 - - 0.0
 
Date/Time
EST
Tmp

°C
App
Tmp
°C
Dew
Point
°C
Rel
Hum
%
Delta-T

°C
Wind Press
QNH
hPa
Press
MSL
hPa
Rain
since
9 am
mm
Dir
 
Spd
km/h
Gust
km/h
Spd
kts
Gust
kts
27/11:40pm 3.2 -3.7 2.3 94 0.4 W 28 44 15 24 - - 0.0
27/11:30pm 3.1 -2.3 2.2 94 0.4 WSW 20 26 11 14 - - 0.0
27/11:00pm 3.0 -2.3 2.0 93 0.4 W 19 24 10 13 - - 0.0
27/10:30pm 3.2 -1.7 2.0 92 0.5 W 17 22 9 12 - - 0.0
27/10:00pm 3.5 -2.4 2.0 90 0.6 W 22 30 12 16 - - 0.0
27/09:30pm 3.8 -2.1 2.0 88 0.8 W 22 32 12 17 - - 0.0
27/09:00pm 4.1 -1.4 2.0 86 0.9 W 20 28 11 15 - - 0.0
27/08:30pm 4.3 -1.0 2.0 85 1.0 W 19 24 10 13 - - 0.0
27/08:00pm 4.4 -0.1 2.1 85 1.0 W 15 20 8 11 - - 0.0
27/07:30pm 4.7 -0.6 2.1 83 1.1 W 19 28 10 15 - - 0.0
27/07:00pm 5.0 0.4 1.8 80 1.4 WSW 15 22 8 12 - - 0.0
27/06:30pm 5.6 0.7 1.7 76 1.7 WSW 17 22 9 12 - - 0.0
27/06:00pm 6.1 2.6 1.4 72 2.0 WSW 9 15 5 8 - - 0.0
27/05:30pm 7.1 2.9 1.4 67 2.5 WSW 13 20 7 11 - - 0.0
27/05:00pm 8.4 3.1 1.8 63 2.9 WSW 19 28 10 15 - - 0.0
27/04:30pm 9.8 4.9 1.9 58 3.5 WSW 17 30 9 16 - - 0.0
27/04:00pm 10.6 5.3 1.9 55 3.9 W 19 26 10 14 - - 0.0
27/03:30pm 10.7 5.2 2.0 55 3.9 W 20 30 11 16 - - 0.0
27/03:00pm 11.0 5.8 2.3 55 4.0 W 19 30 10 16 - - 0.0
27/02:30pm 10.9 5.0 2.0 54 4.0 W 22 33 12 18 - - 0.0
27/02:00pm 10.7 4.5 2.3 56 3.8 WSW 24 33 13 18 - - 0.0
27/01:30pm 10.6 4.4 2.4 57 3.7 WSW 24 37 13 20 - - 0.0
27/01:00pm 10.5 5.8 3.3 61 3.4 W 17 24 9 13 - - 0.0
27/12:30pm 10.0 5.8 4.0 66 2.8 W 15 20 8 11 - - 0.0
27/12:00pm 9.2 5.6 3.2 66 2.8 W 11 20 6 11 - - 0.0
27/11:30am 9.0 5.5 3.6 69 2.5 W 11 17 6 9 - - 0.0
27/11:00am 7.8 3.8 2.9 71 2.2 W 13 19 7 10 - - 0.0
27/10:30am 7.0 2.6 2.5 73 2.0 W 15 20 8 11 - - 0.0
27/10:00am 6.6 3.4 3.0 78 1.6 W 9 17 5 9 - - 0.0
27/09:30am 5.4 1.0 2.6 82 1.2 W 15 20 8 11 - - 0.0
27/09:00am 4.6 0.1 2.0 83 1.1 W 15 20 8 11 - - 0.0
27/08:30am 4.1 -0.5 1.6 84 1.1 W 15 19 8 10 - - 0.0
27/08:00am 3.5 -0.7 1.5 87 0.8 W 13 17 7 9 - - 0.0
27/07:30am 3.4 -1.2 1.4 87 0.8 W 15 19 8 10 - - 0.0
27/07:00am 3.4 -0.8 1.6 88 0.8 W 13 19 7 10 - - 0.0
27/06:30am 3.6 -1.0 1.6 87 0.8 W 15 22 8 12 - - 0.0
27/06:00am 3.5 -1.5 1.4 86 0.9 W 17 24 9 13 - - 0.0
27/05:30am 3.7 -1.2 1.7 87 0.8 W 17 24 9 13 - - 0.0
27/05:00am 3.5 -1.9 1.5 87 0.8 WSW 19 26 10 14 - - 0.0
27/04:30am 3.5 -1.8 1.7 88 0.8 WSW 19 24 10 13 - - 0.0
27/04:00am 3.7 -1.6 1.6 86 0.9 WSW 19 24 10 13 - - 0.0
27/03:30am 4.2 -1.7 1.6 83 1.1 WSW 22 32 12 17 - - 0.0
27/03:00am 3.9 -1.6 1.8 86 0.9 WSW 20 26 11 14 - - 0.0
27/02:30am 3.8 -1.7 1.8 87 0.8 WSW 20 28 11 15 - - 0.0
27/02:00am 4.3 -2.3 2.0 85 1.0 WSW 26 35 14 19 - - 0.0
27/01:30am 4.3 -2.3 2.2 86 0.9 WSW 26 37 14 20 - - 0.0
27/01:00am 4.2 -1.2 2.2 87 0.9 WSW 20 28 11 15 - - 0.0
27/12:30am 4.4 -1.4 2.3 86 0.9 WSW 22 35 12 19 - - 0.0
27/12:00am 4.9 -1.2 2.6 85 1.0 WSW 24 33 13 18 - - 0.0
 
Date/Time
EST
Tmp

°C
App
Tmp
°C
Dew
Point
°C
Rel
Hum
%
Delta-T

°C
Wind Press
QNH
hPa
Press
MSL
hPa
Rain
since
9 am
mm
Dir
 
Spd
km/h
Gust
km/h
Spd
kts
Gust
kts
26/11:30pm 4.8 -1.3 2.8 87 0.9 W 24 35 13 19 - - 0.0
26/11:00pm 4.7 -1.4 2.9 88 0.8 W 24 33 13 18 - - 0.0
26/10:30pm 4.7 -0.9 3.2 90 0.7 W 22 32 12 17 - - 0.0
26/10:00pm 4.7 -0.5 3.4 91 0.6 W 20 30 11 16 - - 0.0
26/09:30pm 5.0 -0.1 3.3 89 0.8 WSW 19 28 10 15 - - 0.0
26/09:00pm 5.4 0.8 3.6 88 0.8 W 17 24 9 13 - - 0.0

Latest Capital City Observations: Canberra | Sydney | Melbourne | Brisbane | Adelaide | Perth | Hobart | Darwin

Other Formats:

Comma delimited format used in spreadsheet applications
http://www.bom.gov.au/fwo/IDN60901/IDN60901.94743.axf

JavaScript Object Notation format (JSON) in row-major order
http://www.bom.gov.au/fwo/IDN60901/IDN60901.94743.json